Time;durP1;ratioP1;P1;durP2;ratioP2;P2;SDS_P1;SDS_P2;PMS_P1;PMS_P2;Temp;Humidity;BMP_temperature;BMP_pressure;BME280_temperature;BME280_humidity;BME280_pressure;Samples;Min_cycle;Max_cycle;Signal;HPM_P1;HPM_P2
2022/04/03 00:01:39;;;;;;;7.03;3.13;;;;;;;;;;5086849;28;20045;-61
2022/04/03 00:04:05;;;;;;;6.15;2.90;;;;;;;;;;5086739;28;20465;-60
2022/04/03 00:06:31;;;;;;;5.55;2.75;;;;;;;;;;5094458;28;20040;-61
2022/04/03 00:08:58;;;;;;;11.18;2.90;;;;;;;;;;5105878;28;20204;-61
2022/04/03 00:11:25;;;;;;;7.18;2.65;;;;;;;;;;5106975;28;20059;-61
2022/04/03 00:13:51;;;;;;;4.97;2.88;;;;;;;;;;5106850;28;20040;-61
2022/04/03 00:16:18;;;;;;;5.95;3.03;;;;;;;;;;5089301;28;20040;-61
2022/04/03 00:18:45;;;;;;;4.20;2.67;;;;;;;;;;5086630;28;20047;-61
2022/04/03 00:21:13;;;;;;;6.22;3.50;;;;;;;;;;5086240;28;20279;-61
2022/04/03 00:23:39;;;;;;;4.25;2.70;;;;;;;;;;5086544;28;20052;-61
2022/04/03 00:26:05;;;;;;;7.65;3.30;;;;;;;;;;5101455;28;20055;-60
2022/04/03 00:28:31;;;;;;;7.38;2.85;;;;;;;;;;5106452;28;20048;-60
2022/04/03 00:30:57;;;;;;;4.90;2.78;;;;;;;;;;5106482;28;20052;-60
2022/04/03 00:33:24;;;;;;;5.10;3.00;;;;;;;;;;5106932;28;20129;-60
2022/04/03 00:35:50;;;;;;;4.40;2.55;;;;;;;;;;5093026;28;20115;-61
2022/04/03 00:38:16;;;;;;;4.03;2.50;;;;;;;;;;5085493;28;20063;-60
2022/04/03 00:40:46;;;;;;;5.97;2.38;;;;;;;;;;5086152;28;20108;-60
2022/04/03 00:43:12;;;;;;;5.68;2.53;;;;;;;;;;5085876;28;20044;-60
2022/04/03 00:45:39;;;;;;;6.45;3.45;;;;;;;;;;5097083;28;20115;-61
2022/04/03 00:48:06;;;;;;;5.22;3.00;;;;;;;;;;5106450;28;20101;-60
2022/04/03 00:50:32;;;;;;;7.53;2.97;;;;;;;;;;5106301;28;20051;-61
2022/04/03 00:52:58;;;;;;;6.82;3.10;;;;;;;;;;5104690;28;20051;-61
2022/04/03 00:55:24;;;;;;;4.07;2.80;;;;;;;;;;5106167;28;20082;-60
2022/04/03 00:57:51;;;;;;;11.23;3.33;;;;;;;;;;5105675;28;20063;-60
2022/04/03 01:00:17;;;;;;;8.75;3.70;;;;;;;;;;5106054;28;20495;-60
2022/04/03 01:02:43;;;;;;;4.70;2.90;;;;;;;;;;5088590;28;20120;-60
2022/04/03 01:05:10;;;;;;;6.53;2.55;;;;;;;;;;5085746;28;20095;-60
2022/04/03 01:07:37;;;;;;;6.43;3.25;;;;;;;;;;5084991;28;20044;-59
2022/04/03 01:10:03;;;;;;;5.90;3.22;;;;;;;;;;5085543;28;20121;-61
2022/04/03 01:12:29;;;;;;;5.95;3.20;;;;;;;;;;5100278;28;20052;-60
2022/04/03 01:14:55;;;;;;;6.13;2.72;;;;;;;;;;5105636;28;20046;-60
2022/04/03 01:17:21;;;;;;;4.72;2.85;;;;;;;;;;5104781;28;20079;-60
2022/04/03 01:19:47;;;;;;;4.88;2.97;;;;;;;;;;5103834;28;20040;-60
2022/04/03 01:22:14;;;;;;;6.80;3.10;;;;;;;;;;5104655;28;20138;-61
2022/04/03 01:24:43;;;;;;;7.57;3.17;;;;;;;;;;5105651;28;20044;-60
2022/04/03 01:27:10;;;;;;;5.50;2.58;;;;;;;;;;5105565;28;20044;-61
2022/04/03 01:29:36;;;;;;;8.25;2.92;;;;;;;;;;5099607;28;20040;-61
2022/04/03 01:32:02;;;;;;;4.18;2.60;;;;;;;;;;5084234;28;20060;-61
2022/04/03 01:34:28;;;;;;;6.07;3.03;;;;;;;;;;5085139;28;20438;-61
2022/04/03 01:36:54;;;;;;;6.22;3.13;;;;;;;;;;5084366;28;20051;-60
2022/04/03 01:39:21;;;;;;;5.32;3.00;;;;;;;;;;5084916;28;20040;-60
2022/04/03 01:41:47;;;;;;;5.53;3.10;;;;;;;;;;5084637;28;20056;-61
2022/04/03 01:44:15;;;;;;;4.40;2.80;;;;;;;;;;5084805;28;20052;-61
2022/04/03 01:46:41;;;;;;;3.85;3.20;;;;;;;;;;5084696;28;20049;-62
2022/04/03 01:49:08;;;;;;;8.27;3.15;;;;;;;;;;5084959;28;20388;-60
2022/04/03 01:51:35;;;;;;;8.25;3.08;;;;;;;;;;5083997;28;20041;-60
2022/04/03 01:54:01;;;;;;;7.00;3.15;;;;;;;;;;5084633;28;20052;-61
2022/04/03 01:56:27;;;;;;;4.13;2.60;;;;;;;;;;5085707;28;20129;-60
2022/04/03 01:58:54;;;;;;;4.82;2.97;;;;;;;;;;5084739;28;20577;-61
2022/04/03 02:01:20;;;;;;;3.28;2.47;;;;;;;;;;5084564;28;20044;-61
2022/04/03 02:03:46;;;;;;;8.38;2.40;;;;;;;;;;5084693;28;20474;-60
2022/04/03 02:06:13;;;;;;;7.00;3.35;;;;;;;;;;5083806;28;20045;-62
2022/04/03 02:08:40;;;;;;;4.22;2.38;;;;;;;;;;5084334;28;20068;-62
2022/04/03 02:11:06;;;;;;;4.00;2.22;;;;;;;;;;5084293;28;20059;-61
2022/04/03 02:13:32;;;;;;;5.75;2.15;;;;;;;;;;5100562;28;20107;-60
2022/04/03 02:15:58;;;;;;;3.90;2.88;;;;;;;;;;5104512;28;20060;-61
2022/04/03 02:18:24;;;;;;;3.08;2.30;;;;;;;;;;5104577;28;20040;-61
2022/04/03 02:20:50;;;;;;;4.10;2.30;;;;;;;;;;5104475;28;20169;-61
2022/04/03 02:23:17;;;;;;;4.25;2.25;;;;;;;;;;5104216;28;20069;-61
2022/04/03 02:25:43;;;;;;;2.55;1.85;;;;;;;;;;5104367;28;20075;-60
2022/04/03 02:28:10;;;;;;;3.70;2.42;;;;;;;;;;5104269;28;20055;-60
2022/04/03 02:30:37;;;;;;;2.55;2.00;;;;;;;;;;5098490;28;20041;-60
2022/04/03 02:33:03;;;;;;;3.28;2.03;;;;;;;;;;5083957;28;20045;-61
2022/04/03 02:35:29;;;;;;;2.85;1.80;;;;;;;;;;5084292;28;20036;-60
2022/04/03 02:37:55;;;;;;;3.00;2.13;;;;;;;;;;5083541;28;20052;-60
2022/04/03 02:40:22;;;;;;;3.83;2.17;;;;;;;;;;5084232;28;20466;-60
2022/04/03 02:42:48;;;;;;;2.63;1.90;;;;;;;;;;5088758;28;20040;-60
2022/04/03 02:45:15;;;;;;;3.13;1.80;;;;;;;;;;5104268;28;20055;-60
2022/04/03 02:47:47;;;;;;;6.10;2.03;;;;;;;;;;5104021;28;20131;-61
2022/04/03 02:50:16;;;;;;;2.17;1.83;;;;;;;;;;5104217;28;20047;-61
2022/04/03 02:52:42;;;;;;;3.47;1.83;;;;;;;;;;5103693;28;20040;-60
2022/04/03 02:55:09;;;;;;;2.63;1.50;;;;;;;;;;5104550;28;20111;-61
2022/04/03 02:57:35;;;;;;;2.45;1.90;;;;;;;;;;5103843;28;20044;-62
2022/04/03 03:00:02;;;;;;;1.58;1.42;;;;;;;;;;5090255;28;20051;-60
2022/04/03 03:02:28;;;;;;;2.60;1.40;;;;;;;;;;5083873;28;20045;-60
2022/04/03 03:04:54;;;;;;;3.25;1.75;;;;;;;;;;5082587;28;20453;-60
2022/04/03 03:07:21;;;;;;;3.65;1.30;;;;;;;;;;5083569;28;20067;-59
2022/04/03 03:09:48;;;;;;;1.75;1.25;;;;;;;;;;5084232;28;20111;-61
2022/04/03 03:12:14;;;;;;;4.65;1.58;;;;;;;;;;5083786;28;20040;-60
2022/04/03 03:14:40;;;;;;;5.30;1.50;;;;;;;;;;5084574;28;20044;-61
2022/04/03 03:17:07;;;;;;;1.38;1.25;;;;;;;;;;5102417;28;20403;-61
2022/04/03 03:19:33;;;;;;;2.75;1.40;;;;;;;;;;5103900;28;20050;-61
2022/04/03 03:21:59;;;;;;;8.40;2.15;;;;;;;;;;5105384;28;20103;-61
2022/04/03 03:24:25;;;;;;;3.63;1.70;;;;;;;;;;5108330;28;20123;-61
2022/04/03 03:26:51;;;;;;;2.67;1.50;;;;;;;;;;5107900;28;20389;-62
2022/04/03 03:29:17;;;;;;;3.47;1.85;;;;;;;;;;5107650;28;20044;-62
2022/04/03 03:31:43;;;;;;;5.35;2.20;;;;;;;;;;5106892;28;20036;-61
2022/04/03 03:34:09;;;;;;;5.47;1.98;;;;;;;;;;5107658;28;20051;-62
2022/04/03 03:36:35;;;;;;;3.80;2.00;;;;;;;;;;5107258;28;20075;-61
2022/04/03 03:39:02;;;;;;;5.60;1.95;;;;;;;;;;5102407;28;20069;-62
2022/04/03 03:41:28;;;;;;;3.05;2.25;;;;;;;;;;5107496;28;20060;-61
2022/04/03 03:43:54;;;;;;;5.32;1.73;;;;;;;;;;5107147;28;20055;-62
2022/04/03 03:46:20;;;;;;;7.60;1.90;;;;;;;;;;5107455;28;20052;-62
2022/04/03 03:48:46;;;;;;;5.95;2.08;;;;;;;;;;5106817;28;20071;-62
2022/04/03 03:51:12;;;;;;;2.45;1.77;;;;;;;;;;5106934;28;20044;-61
2022/04/03 03:53:39;;;;;;;5.85;2.45;;;;;;;;;;5107349;28;20040;-62
2022/04/03 03:56:06;;;;;;;4.53;2.60;;;;;;;;;;5107161;28;20044;-62
2022/04/03 03:58:32;;;;;;;4.22;2.38;;;;;;;;;;5106559;28;20059;-61
2022/04/03 04:00:58;;;;;;;5.30;2.35;;;;;;;;;;5107148;28;20056;-61
2022/04/03 04:03:24;;;;;;;3.22;1.90;;;;;;;;;;5103256;28;20040;-62
2022/04/03 04:05:50;;;;;;;3.65;2.53;;;;;;;;;;5087283;28;20048;-62
2022/04/03 04:08:16;;;;;;;7.35;3.25;;;;;;;;;;5086095;28;20131;-62
2022/04/03 04:10:42;;;;;;;10.13;2.60;;;;;;;;;;5086740;28;20102;-61
2022/04/03 04:13:09;;;;;;;5.65;3.53;;;;;;;;;;5086489;28;20044;-61
2022/04/03 04:15:35;;;;;;;4.90;3.10;;;;;;;;;;5086620;28;20041;-61
2022/04/03 04:18:01;;;;;;;7.20;2.65;;;;;;;;;;5086406;28;20063;-61
2022/04/03 04:20:27;;;;;;;5.07;3.13;;;;;;;;;;5087292;28;20074;-61
2022/04/03 04:22:53;;;;;;;6.30;3.05;;;;;;;;;;5085646;28;20040;-61
2022/04/03 04:25:20;;;;;;;4.68;2.67;;;;;;;;;;5086504;28;20052;-61
2022/04/03 04:27:47;;;;;;;6.05;3.08;;;;;;;;;;5086084;28;20044;-60
2022/04/03 04:30:14;;;;;;;8.95;3.20;;;;;;;;;;5086359;28;20059;-62
2022/04/03 04:32:40;;;;;;;7.38;2.75;;;;;;;;;;5089583;28;20036;-61
2022/04/03 04:35:06;;;;;;;9.85;3.05;;;;;;;;;;5106953;28;20425;-61
2022/04/03 04:37:33;;;;;;;7.05;3.25;;;;;;;;;;5105815;28;20044;-61
2022/04/03 04:39:59;;;;;;;5.18;2.78;;;;;;;;;;5106577;28;20048;-60
2022/04/03 04:42:25;;;;;;;5.57;2.80;;;;;;;;;;5105976;28;20115;-61
2022/04/03 04:44:52;;;;;;;7.10;3.17;;;;;;;;;;5104993;28;20075;-60
2022/04/03 04:47:18;;;;;;;5.57;2.47;;;;;;;;;;5106474;28;20212;-61
2022/04/03 04:49:44;;;;;;;8.48;2.80;;;;;;;;;;5095545;28;20049;-61
2022/04/03 04:52:10;;;;;;;6.80;2.63;;;;;;;;;;5085352;28;20048;-60
2022/04/03 04:54:36;;;;;;;6.68;2.88;;;;;;;;;;5085909;28;20040;-60
2022/04/03 04:57:02;;;;;;;4.13;2.90;;;;;;;;;;5085648;28;20083;-61
2022/04/03 04:59:28;;;;;;;4.10;2.65;;;;;;;;;;5085509;28;20056;-61
2022/04/03 05:01:56;;;;;;;9.38;3.10;;;;;;;;;;5086072;28;20041;-60
2022/04/03 05:04:22;;;;;;;;;;;;;;;;;;5086208;28;20040;-60
2022/04/03 05:06:48;;;;;;;7.10;2.97;;;;;;;;;;5085442;28;19920;-60
2022/04/03 05:09:14;;;;;;;6.38;3.30;;;;;;;;;;5085810;28;20053;-61
2022/04/03 05:11:41;;;;;;;5.65;2.95;;;;;;;;;;5085779;28;20119;-61
2022/04/03 05:14:07;;;;;;;8.38;3.13;;;;;;;;;;5085375;28;20052;-61
2022/04/03 05:16:33;;;;;;;7.18;3.33;;;;;;;;;;5085600;28;20052;-61
2022/04/03 05:18:59;;;;;;;4.03;2.95;;;;;;;;;;5085483;28;20040;-61
2022/04/03 05:21:25;;;;;;;9.82;3.35;;;;;;;;;;5089705;28;20047;-62
2022/04/03 05:23:51;;;;;;;7.13;3.03;;;;;;;;;;5105633;28;20040;-61
2022/04/03 05:26:17;;;;;;;8.30;2.22;;;;;;;;;;5105455;28;20043;-61
2022/04/03 05:28:44;;;;;;;2.00;1.80;;;;;;;;;;5105093;28;20052;-60
2022/04/03 05:31:10;;;;;;;3.70;1.92;;;;;;;;;;5105506;28;20093;-61
2022/04/03 05:33:37;;;;;;;6.40;1.80;;;;;;;;;;5105428;28;20043;-61
2022/04/03 05:36:04;;;;;;;8.35;2.72;;;;;;;;;;5104914;28;20553;-61
2022/04/03 05:38:31;;;;;;;2.72;2.00;;;;;;;;;;5091903;28;20036;-62
2022/04/03 05:40:57;;;;;;;6.55;2.50;;;;;;;;;;5084686;28;20060;-61
2022/04/03 05:43:24;;;;;;;3.35;2.25;;;;;;;;;;5084828;28;20054;-63
2022/04/03 05:45:50;;;;;;;6.15;2.28;;;;;;;;;;5084522;28;20047;-61
2022/04/03 05:48:16;;;;;;;4.30;2.30;;;;;;;;;;5084439;28;20613;-61
2022/04/03 05:50:43;;;;;;;6.55;2.40;;;;;;;;;;5084789;28;20044;-61
2022/04/03 05:53:09;;;;;;;3.92;2.25;;;;;;;;;;5084344;28;20186;-61
2022/04/03 05:55:35;;;;;;;3.15;2.05;;;;;;;;;;5084870;28;20074;-61
2022/04/03 05:58:01;;;;;;;6.78;2.42;;;;;;;;;;5083396;28;20072;-60
2022/04/03 06:00:28;;;;;;;7.38;2.63;;;;;;;;;;5084288;28;20049;-61
2022/04/03 06:03:00;;;;;;;5.70;2.33;;;;;;;;;;5084646;28;20643;-61
2022/04/03 06:05:28;;;;;;;3.67;2.50;;;;;;;;;;5083508;28;20044;-61
2022/04/03 06:07:54;;;;;;;11.02;3.22;;;;;;;;;;5084100;28;20375;-61
2022/04/03 06:10:21;;;;;;;9.77;2.63;;;;;;;;;;5093481;28;20067;-62
2022/04/03 06:12:53;;;;;;;5.60;2.08;;;;;;;;;;5104505;28;20089;-62
2022/04/03 06:15:19;;;;;;;4.53;2.20;;;;;;;;;;5104781;28;20794;-61
2022/04/03 06:17:47;;;;;;;3.38;2.30;;;;;;;;;;5104615;28;20040;-61
2022/04/03 06:20:13;;;;;;;;;;;;;;;;;;5105008;28;20056;-60
2022/04/03 06:22:40;;;;;;;6.35;2.22;;;;;;;;;;5088443;28;19960;-61
2022/04/03 06:25:07;;;;;;;7.78;2.30;;;;;;;;;;5084201;28;20252;-61
2022/04/03 06:27:34;;;;;;;7.07;2.80;;;;;;;;;;5084528;28;20100;-61
2022/04/03 06:30:00;;;;;;;5.35;2.08;;;;;;;;;;5084206;28;20336;-60
2022/04/03 06:32:26;;;;;;;4.90;2.60;;;;;;;;;;5083900;28;20119;-61
2022/04/03 06:34:52;;;;;;;3.70;1.88;;;;;;;;;;5084200;28;20051;-61
2022/04/03 06:37:18;;;;;;;9.57;3.25;;;;;;;;;;5083480;28;20087;-60
2022/04/03 06:39:44;;;;;;;7.68;2.00;;;;;;;;;;5098993;28;20048;-60
2022/04/03 06:42:10;;;;;;;9.82;2.55;;;;;;;;;;5084056;28;20085;-60
2022/04/03 06:44:38;;;;;;;4.13;1.92;;;;;;;;;;5083750;28;20094;-61
2022/04/03 06:47:04;;;;;;;6.05;1.90;;;;;;;;;;5085258;28;20060;-60
2022/04/03 06:49:31;;;;;;;3.03;2.00;;;;;;;;;;5085651;28;20492;-60
2022/04/03 06:51:57;;;;;;;3.92;2.13;;;;;;;;;;5091984;28;20091;-61
2022/04/03 06:54:23;;;;;;;6.45;2.17;;;;;;;;;;5091316;28;20048;-60
2022/04/03 06:56:49;;;;;;;5.75;1.45;;;;;;;;;;5106917;28;20043;-60
2022/04/03 06:59:15;;;;;;;5.32;1.58;;;;;;;;;;5102878;28;20071;-60
2022/04/03 07:01:41;;;;;;;5.10;1.98;;;;;;;;;;5097818;28;20048;-61
2022/04/03 07:04:07;;;;;;;4.18;1.45;;;;;;;;;;5100245;28;20135;-61
2022/04/03 07:06:33;;;;;;;5.22;1.40;;;;;;;;;;5102315;28;20629;-59
2022/04/03 07:08:59;;;;;;;2.70;1.73;;;;;;;;;;5087940;28;20052;-60
2022/04/03 07:11:25;;;;;;;7.18;2.38;;;;;;;;;;5087656;28;20106;-59
2022/04/03 07:13:51;;;;;;;1.85;1.08;;;;;;;;;;5094430;28;20126;-60
2022/04/03 07:16:18;;;;;;;1.95;1.17;;;;;;;;;;5093248;28;20044;-59
2022/04/03 07:18:44;;;;;;;5.88;1.25;;;;;;;;;;5093182;28;20548;-60
2022/04/03 07:21:10;;;;;;;7.13;1.30;;;;;;;;;;5099197;28;20133;-61
2022/04/03 07:23:36;;;;;;;6.35;1.60;;;;;;;;;;5102256;28;20055;-59
2022/04/03 07:26:02;;;;;;;3.72;1.20;;;;;;;;;;5100077;28;20052;-59
2022/04/03 07:28:28;;;;;;;3.03;1.35;;;;;;;;;;5098576;28;20131;-59
2022/04/03 07:30:54;;;;;;;3.72;1.30;;;;;;;;;;5091229;28;20051;-59
2022/04/03 07:33:21;;;;;;;3.95;0.98;;;;;;;;;;5095504;28;20048;-60
2022/04/03 07:35:49;;;;;;;2.17;0.82;;;;;;;;;;5092422;28;20071;-59
2022/04/03 07:38:16;;;;;;;1.50;0.60;;;;;;;;;;5098167;28;20534;-60
2022/04/03 07:40:42;;;;;;;2.38;1.13;;;;;;;;;;5086938;28;20135;-60
2022/04/03 07:43:08;;;;;;;3.10;0.73;;;;;;;;;;5094187;28;20048;-60
2022/04/03 07:45:34;;;;;;;1.90;1.02;;;;;;;;;;5100391;28;20067;-59
2022/04/03 07:48:00;;;;;;;4.15;0.80;;;;;;;;;;5097307;28;20484;-59
2022/04/03 07:50:27;;;;;;;2.28;0.75;;;;;;;;;;5087911;28;20096;-60
2022/04/03 07:52:53;;;;;;;3.53;0.88;;;;;;;;;;5097623;28;20052;-59
2022/04/03 07:55:19;;;;;;;3.10;0.90;;;;;;;;;;5096182;28;20043;-60
2022/04/03 07:57:45;;;;;;;4.45;1.27;;;;;;;;;;5106962;28;20511;-60
2022/04/03 08:00:13;;;;;;;3.20;0.90;;;;;;;;;;5104359;28;20054;-61
2022/04/03 08:02:39;;;;;;;2.05;1.00;;;;;;;;;;5095921;28;20082;-59
2022/04/03 08:05:06;;;;;;;2.58;0.80;;;;;;;;;;5097986;28;20124;-61
2022/04/03 08:07:39;;;;;;;5.30;1.67;;;;;;;;;;5105706;28;20048;-60
2022/04/03 08:10:08;;;;;;;4.10;1.88;;;;;;;;;;5087002;28;20044;-59
2022/04/03 08:12:34;;;;;;;3.67;1.15;;;;;;;;;;5085797;28;20066;-59
2022/04/03 08:15:01;;;;;;;4.07;1.00;;;;;;;;;;5106003;28;20118;-59
2022/04/03 08:17:27;;;;;;;6.28;1.60;;;;;;;;;;5105666;28;20048;-59
2022/04/03 08:19:53;;;;;;;4.18;1.05;;;;;;;;;;5102302;28;20467;-59
2022/04/03 08:22:20;;;;;;;4.50;1.10;;;;;;;;;;5087239;28;20060;-60
2022/04/03 08:24:46;;;;;;;2.22;0.98;;;;;;;;;;5099583;28;20119;-60
2022/04/03 08:27:12;;;;;;;5.63;0.90;;;;;;;;;;5086218;28;20044;-60
2022/04/03 08:29:38;;;;;;;2.13;1.00;;;;;;;;;;5086856;28;20137;-59
2022/04/03 08:32:04;;;;;;;5.47;0.98;;;;;;;;;;5106504;28;20040;-59
2022/04/03 08:34:30;;;;;;;4.07;1.08;;;;;;;;;;5103764;28;20480;-60
2022/04/03 08:36:57;;;;;;;3.90;0.95;;;;;;;;;;5104191;28;20083;-58
2022/04/03 08:39:24;;;;;;;2.63;0.95;;;;;;;;;;5087991;28;20052;-60
2022/04/03 08:41:50;;;;;;;4.32;1.17;;;;;;;;;;5105024;28;20129;-59
2022/04/03 08:44:16;;;;;;;5.13;1.05;;;;;;;;;;5102114;28;20044;-59
2022/04/03 08:46:45;;;;;;;1.95;0.73;;;;;;;;;;5087312;28;20129;-59
2022/04/03 08:49:12;;;;;;;3.90;0.80;;;;;;;;;;5093750;28;20130;-59
2022/04/03 08:51:39;;;;;;;3.22;1.20;;;;;;;;;;5086879;28;20092;-60
2022/04/03 08:54:06;;;;;;;5.30;1.02;;;;;;;;;;5092984;28;20132;-59
2022/04/03 08:56:33;;;;;;;7.35;0.95;;;;;;;;;;5105108;28;20461;-59
2022/04/03 08:58:59;;;;;;;0.82;0.40;;;;;;;;;;5089846;28;20100;-58
2022/04/03 09:01:25;;;;;;;5.97;0.88;;;;;;;;;;5089759;28;20119;-59
2022/04/03 09:03:51;;;;;;;7.25;0.95;;;;;;;;;;5100991;28;20104;-60
2022/04/03 09:06:19;;;;;;;2.67;0.60;;;;;;;;;;5105107;28;20104;-59
2022/04/03 09:08:45;;;;;;;4.68;0.85;;;;;;;;;;5103201;28;20075;-59
2022/04/03 09:11:11;;;;;;;2.58;0.90;;;;;;;;;;5102010;28;20055;-60
2022/04/03 09:13:38;;;;;;;2.25;0.70;;;;;;;;;;5098783;28;20103;-59
2022/04/03 09:16:05;;;;;;;4.63;1.05;;;;;;;;;;5094564;28;20039;-59
2022/04/03 09:18:50;;;;;;;1.98;0.70;;;;;;;;;;5093961;28;20063;-59
2022/04/03 09:21:23;;;;;;;2.65;0.47;;;;;;;;;;5092726;28;20064;-59
2022/04/03 09:24:00;;;;;;;5.35;1.00;;;;;;;;;;5098455;28;20052;-60
2022/04/03 09:26:26;;;;;;;6.20;0.80;;;;;;;;;;5085223;28;20044;-60
2022/04/03 09:29:05;;;;;;;7.15;0.82;;;;;;;;;;5093673;28;20086;-59
2022/04/03 09:31:31;;;;;;;1.95;0.50;;;;;;;;;;5097024;28;20044;-59
2022/04/03 09:34:01;;;;;;;5.07;0.82;;;;;;;;;;5090740;28;20048;-60
2022/04/03 09:36:30;;;;;;;0.47;0.40;;;;;;;;;;5092232;28;20182;-60
2022/04/03 09:39:04;;;;;;;2.97;0.50;;;;;;;;;;5085959;28;20496;-59
2022/04/03 09:41:31;;;;;;;3.50;0.57;;;;;;;;;;5085334;28;20056;-59
2022/04/03 09:43:57;;;;;;;5.30;0.70;;;;;;;;;;5095655;28;20040;-59
2022/04/03 09:46:29;;;;;;;3.53;0.75;;;;;;;;;;5100361;28;20043;-60
2022/04/03 09:48:56;;;;;;;0.50;0.50;;;;;;;;;;5103768;28;20051;-59
2022/04/03 09:51:22;;;;;;;1.35;0.45;;;;;;;;;;5086449;28;20056;-59
2022/04/03 09:53:49;;;;;;;4.82;0.60;;;;;;;;;;5085164;28;20067;-59
2022/04/03 09:56:34;;;;;;;2.05;0.35;;;;;;;;;;5083621;28;20052;-59
2022/04/03 09:59:04;;;;;;;1.23;0.52;;;;;;;;;;5093466;28;20081;-59
2022/04/03 10:01:33;;;;;;;2.03;1.13;;;;;;;;;;5092347;28;20043;-59
2022/04/03 10:04:00;;;;;;;7.60;0.90;;;;;;;;;;5086633;28;20064;-59
2022/04/03 10:06:27;;;;;;;2.67;0.70;;;;;;;;;;5098701;28;20083;-59
2022/04/03 10:08:53;;;;;;;2.13;0.77;;;;;;;;;;5086688;28;20048;-59
2022/04/03 10:11:19;;;;;;;1.23;0.75;;;;;;;;;;5104240;28;20047;-59
2022/04/03 10:13:46;;;;;;;1.55;0.60;;;;;;;;;;5093376;28;20105;-59
2022/04/03 10:16:13;;;;;;;6.15;1.27;;;;;;;;;;5082790;28;20056;-59
2022/04/03 10:18:45;;;;;;;2.05;0.98;;;;;;;;;;5086906;28;20055;-59
2022/04/03 10:21:32;;;;;;;2.75;1.17;;;;;;;;;;5089431;28;20044;-59
2022/04/03 10:24:00;;;;;;;4.80;1.02;;;;;;;;;;5072005;28;20574;-59
2022/04/03 10:26:27;;;;;;;1.98;0.85;;;;;;;;;;5084644;28;20045;-59
2022/04/03 10:28:54;;;;;;;5.72;0.93;;;;;;;;;;5084447;28;20040;-59
2022/04/03 10:31:20;;;;;;;3.08;0.80;;;;;;;;;;5102540;28;20044;-59
2022/04/03 10:33:51;;;;;;;2.95;0.82;;;;;;;;;;5097867;28;20052;-59
2022/04/03 10:36:24;;;;;;;3.13;0.70;;;;;;;;;;5098104;28;20077;-58
2022/04/03 10:39:02;;;;;;;5.40;1.70;;;;;;;;;;5091122;28;20040;-60
2022/04/03 10:41:30;;;;;;;1.40;0.63;;;;;;;;;;5103904;28;20055;-59
2022/04/03 10:44:15;;;;;;;7.55;0.90;;;;;;;;;;5098553;28;21875;-61
2022/04/03 10:47:00;;;;;;;2.13;1.02;;;;;;;;;;5083983;28;20048;-59
2022/04/03 10:49:38;;;;;;;3.33;0.82;;;;;;;;;;5083949;28;20042;-59
2022/04/03 10:52:08;;;;;;;1.17;0.88;;;;;;;;;;5084401;28;20067;-59
2022/04/03 10:54:49;;;;;;;3.53;0.85;;;;;;;;;;5086027;28;20044;-61
2022/04/03 10:57:34;;;;;;;3.70;0.60;;;;;;;;;;5094429;28;20125;-60
2022/04/03 11:00:12;;;;;;;1.95;0.70;;;;;;;;;;5090549;28;20096;-59
2022/04/03 11:02:39;;;;;;;1.83;0.82;;;;;;;;;;5082567;28;20056;-59
2022/04/03 11:05:24;;;;;;;2.00;0.88;;;;;;;;;;5086379;28;20044;-60
2022/04/03 11:08:10;;;;;;;1.48;0.55;;;;;;;;;;5092375;28;20067;-64
2022/04/03 11:10:55;;;;;;;2.38;0.70;;;;;;;;;;5102030;28;20048;-63
2022/04/03 11:13:31;;;;;;;2.47;0.75;;;;;;;;;;5083549;28;20063;-65
2022/04/03 11:15:57;;;;;;;3.75;0.80;;;;;;;;;;5083766;28;20082;-64
2022/04/03 11:18:30;;;;;;;2.13;1.20;;;;;;;;;;5084611;28;20515;-64
2022/04/03 11:21:13;;;;;;;2.08;0.70;;;;;;;;;;5083436;28;20068;-65
2022/04/03 11:23:45;;;;;;;2.22;1.15;;;;;;;;;;5085904;28;20038;-64
2022/04/03 11:26:11;;;;;;;1.55;0.65;;;;;;;;;;5093512;28;20036;-63
2022/04/03 11:28:37;;;;;;;3.05;1.00;;;;;;;;;;5090202;28;20071;-63
2022/04/03 11:31:05;;;;;;;4.13;0.85;;;;;;;;;;5083161;28;20047;-63
2022/04/03 11:33:32;;;;;;;2.50;0.75;;;;;;;;;;5092810;28;20044;-63
2022/04/03 11:36:04;;;;;;;3.20;1.08;;;;;;;;;;5102002;28;20061;-64
2022/04/03 11:38:37;;;;;;;5.00;1.40;;;;;;;;;;5098196;28;20048;-63
2022/04/03 11:41:07;;;;;;;3.42;0.85;;;;;;;;;;5083324;28;20059;-65
2022/04/03 11:43:34;;;;;;;1.40;0.70;;;;;;;;;;5088375;28;20444;-65
2022/04/03 11:46:01;;;;;;;1.70;0.70;;;;;;;;;;5106984;28;20048;-63
2022/04/03 11:48:29;;;;;;;1.08;0.60;;;;;;;;;;5087380;28;20063;-63
2022/04/03 11:51:05;;;;;;;2.15;0.60;;;;;;;;;;5088172;28;20062;-64
2022/04/03 11:53:32;;;;;;;3.97;0.55;;;;;;;;;;5098713;28;20056;-63
2022/04/03 11:56:04;;;;;;;6.40;0.70;;;;;;;;;;5090052;28;20113;-64
2022/04/03 11:58:31;;;;;;;2.40;1.02;;;;;;;;;;5103870;28;20089;-63
2022/04/03 12:00:58;;;;;;;1.70;0.80;;;;;;;;;;5103937;28;20077;-63
2022/04/03 12:03:30;;;;;;;3.80;1.58;;;;;;;;;;5107010;28;20052;-63
2022/04/03 12:06:11;;;;;;;2.83;0.70;;;;;;;;;;5103651;28;20035;-63
2022/04/03 12:08:41;;;;;;;2.50;0.55;;;;;;;;;;5105348;28;20048;-63
2022/04/03 12:11:25;;;;;;;1.92;0.60;;;;;;;;;;5106533;28;20036;-64
2022/04/03 12:13:52;;;;;;;2.13;0.50;;;;;;;;;;5087282;28;20083;-63
2022/04/03 12:16:22;;;;;;;2.20;0.67;;;;;;;;;;5086071;28;20036;-63
2022/04/03 12:18:59;;;;;;;1.98;0.70;;;;;;;;;;5105447;28;20673;-63
2022/04/03 12:21:44;;;;;;;2.63;0.82;;;;;;;;;;5106096;28;20052;-64
2022/04/03 12:24:10;;;;;;;1.83;0.63;;;;;;;;;;5091584;28;20113;-64
2022/04/03 12:26:37;;;;;;;3.35;0.93;;;;;;;;;;5098741;28;20071;-63
2022/04/03 12:29:04;;;;;;;4.93;1.05;;;;;;;;;;5104678;28;20048;-63
2022/04/03 12:31:31;;;;;;;6.00;1.20;;;;;;;;;;5101890;28;20044;-64
2022/04/03 12:34:04;;;;;;;5.68;1.38;;;;;;;;;;5086271;28;20044;-64
2022/04/03 12:36:43;;;;;;;3.22;1.27;;;;;;;;;;5088483;28;20044;-62
2022/04/03 12:39:28;;;;;;;3.58;0.82;;;;;;;;;;5096730;28;20048;-64
2022/04/03 12:41:54;;;;;;;5.97;1.25;;;;;;;;;;5101944;28;20083;-63
2022/04/03 12:44:20;;;;;;;4.30;1.10;;;;;;;;;;5088445;28;20076;-63
2022/04/03 12:46:47;;;;;;;3.75;0.80;;;;;;;;;;5097960;28;20128;-64
2022/04/03 12:49:19;;;;;;;7.53;1.40;;;;;;;;;;5101056;28;20108;-63
2022/04/03 12:51:46;;;;;;;1.88;0.50;;;;;;;;;;5102491;28;20130;-65
2022/04/03 12:54:13;;;;;;;2.17;0.60;;;;;;;;;;5097713;28;20080;-63
2022/04/03 12:59:24;;;;;;;3.83;0.68;;;;;;;;;;5099724;28;20055;-63
2022/04/03 13:01:54;;;;;;;2.90;0.90;;;;;;;;;;5101023;28;20525;-64
2022/04/03 13:04:30;;;;;;;2.08;0.70;;;;;;;;;;5086834;28;20047;-63
2022/04/03 13:06:56;;;;;;;2.13;0.60;;;;;;;;;;5084211;28;20036;-63
2022/04/03 13:09:22;;;;;;;1.73;0.60;;;;;;;;;;5096398;28;20043;-63
2022/04/03 13:11:49;;;;;;;1.00;0.40;;;;;;;;;;5105035;28;20039;-63
2022/04/03 13:14:17;;;;;;;1.83;0.60;;;;;;;;;;5100003;28;20044;-62
2022/04/03 13:16:43;;;;;;;2.10;0.70;;;;;;;;;;5103838;28;20123;-63
2022/04/03 13:19:09;;;;;;;3.28;0.68;;;;;;;;;;5103368;28;20051;-62
2022/04/03 13:21:36;;;;;;;2.22;1.13;;;;;;;;;;5104826;28;20058;-62
2022/04/03 13:24:03;;;;;;;1.40;0.50;;;;;;;;;;5102746;28;20510;-62
2022/04/03 13:26:30;;;;;;;0.82;0.43;;;;;;;;;;5095219;28;20074;-64
2022/04/03 13:28:56;;;;;;;1.08;0.68;;;;;;;;;;5099595;28;20064;-63
2022/04/03 13:31:22;;;;;;;1.33;0.60;;;;;;;;;;5085152;28;20096;-63
2022/04/03 13:33:48;;;;;;;3.60;0.70;;;;;;;;;;5085137;28;20471;-63
2022/04/03 13:36:14;;;;;;;0.73;0.40;;;;;;;;;;5104214;28;20158;-63
2022/04/03 13:38:40;;;;;;;1.52;0.50;;;;;;;;;;5104278;28;20048;-64
2022/04/03 13:41:06;;;;;;;1.25;0.40;;;;;;;;;;5104831;28;20066;-61
2022/04/03 13:43:32;;;;;;;1.65;0.70;;;;;;;;;;5094055;28;20048;-62
2022/04/03 13:46:01;;;;;;;1.83;0.40;;;;;;;;;;5085147;28;20044;-63
2022/04/03 13:48:38;;;;;;;0.85;0.47;;;;;;;;;;5096816;28;20384;-63
2022/04/03 13:51:05;;;;;;;1.35;0.60;;;;;;;;;;5096461;28;20131;-67
2022/04/03 13:53:31;;;;;;;0.25;0.25;;;;;;;;;;5089557;28;20044;-67
2022/04/03 13:55:58;;;;;;;1.50;1.05;;;;;;;;;;5094544;28;20495;-65
2022/04/03 13:58:26;;;;;;;1.17;0.40;;;;;;;;;;5101926;28;20052;-65
2022/04/03 14:00:53;;;;;;;2.80;0.38;;;;;;;;;;5098238;28;20575;-66
2022/04/03 14:03:24;;;;;;;2.17;0.60;;;;;;;;;;5098004;28;20115;-65
2022/04/03 14:05:50;;;;;;;2.47;0.60;;;;;;;;;;5098353;28;20044;-65
2022/04/03 14:08:16;;;;;;;1.65;0.68;;;;;;;;;;5100199;28;20040;-65
2022/04/03 14:10:43;;;;;;;1.85;0.50;;;;;;;;;;5096199;28;20039;-64
2022/04/03 14:13:09;;;;;;;4.15;0.98;;;;;;;;;;5092874;28;20036;-64
2022/04/03 14:15:37;;;;;;;1.58;0.70;;;;;;;;;;5090600;28;20127;-64
2022/04/03 14:18:03;;;;;;;1.65;0.52;;;;;;;;;;5086502;28;20100;-65
2022/04/03 14:20:29;;;;;;;2.97;0.80;;;;;;;;;;5092810;28;20076;-64
2022/04/03 14:22:55;;;;;;;1.48;0.50;;;;;;;;;;5095534;28;20127;-68
2022/04/03 14:25:22;;;;;;;2.15;0.77;;;;;;;;;;5084221;28;20050;-64
2022/04/03 14:27:48;;;;;;;3.80;0.93;;;;;;;;;;5092519;28;20040;-64
2022/04/03 14:30:14;;;;;;;2.38;0.70;;;;;;;;;;5091465;28;20052;-64
2022/04/03 14:32:45;;;;;;;2.80;0.73;;;;;;;;;;5090236;28;20060;-68
2022/04/03 14:35:13;;;;;;;1.98;0.70;;;;;;;;;;5088797;28;20040;-68
2022/04/03 14:37:40;;;;;;;2.47;0.98;;;;;;;;;;5086908;28;20036;-66
2022/04/03 14:40:06;;;;;;;2.90;0.90;;;;;;;;;;5091459;28;20497;-68
2022/04/03 14:42:32;;;;;;;5.55;1.38;;;;;;;;;;5091370;28;20091;-66
2022/04/03 14:44:58;;;;;;;2.10;1.05;;;;;;;;;;5089894;28;20048;-66
2022/04/03 14:47:24;;;;;;;5.25;0.98;;;;;;;;;;5086160;28;20127;-66
2022/04/03 14:49:50;;;;;;;2.92;0.90;;;;;;;;;;5092800;28;20169;-66